Qiryat Ata, Israel
Current Conditions -  °F | °C
As of 8:50 PM on Sunday 25 Jan 2015 (Local Time) from LLHA Reporting Station
Clear Clear  
Wind Chill: 59°   Ceiling: Unl
Heat Index: 59°   Visibility: 4mi
Dew Point: 55°   Wind: 0mph
Humidity: 88%   Direction: NA
Pressure: 30.03"   Gusts: NA
Location:  32.8°N, 35.11°E
Report Text: LLHA 251750Z 00000KT 6000 NSC 15/13 Q1017
Loading
Personal Weather Stations






























Interactive Weather Map New forecast layout! Learn more

10-Day Weather Forecast

Advertisements
Track Severe Weather on mobile